This is the latest recevied weather packets stored in our database for station/object IZ1CYF-13. If no packets are shown the sender has not sent any weather packets the latest 10 day(s).
| Time | Temp. | Humidity | Pressure | Rain* | Wind** | Luminosity | Snow |
|---|---|---|---|---|---|---|---|
| 1777796334 | 21.67° C | 38% | 1020.2 hPa | - | - | - | - |
| 1777795735 | 20.56° C | 41% | 1020.5 hPa | - | - | - | - |
| 1777795134 | 21.11° C | 40% | 1020.3 hPa | - | - | - | - |
| 1777791540 | 21.11° C | 39% | 1020.2 hPa | - | - | - | - |
| 1777787935 | 17.78° C | 44% | 1021.1 hPa | - | - | - | - |
| 1777784351 | 17.78° C | 43% | 1021.1 hPa | - | - | - | - |
| 1777783136 | 16.67° C | 47% | 1021.3 hPa | - | - | - | - |
| 1777782535 | 17.22° C | 45% | 1021.1 hPa | - | - | - | - |
| 1777781335 | 15° C | 49% | 1021.5 hPa | - | - | - | - |
| 1777780135 | 16.11° C | 47% | 1021.4 hPa | - | - | - | - |
| 1777779550 | 15.56° C | 48% | 1021.6 hPa | - | - | - | - |
| 1777774135 | 15° C | 52% | 1022.1 hPa | - | - | - | - |
| 1777769336 | 15.56° C | 53% | 1022.5 hPa | - | - | - | - |
| 1777765735 | 16.11° C | 53% | 1022.8 hPa | - | - | - | - |
| 1777762136 | 17.78° C | 49% | 1022.7 hPa | - | - | - | - |
| 1777760351 | 18.33° C | 47% | 1022.5 hPa | - | - | - | - |
| 1777756137 | 18.33° C | 49% | 1022.7 hPa | - | - | - | - |
| 1777753136 | 20° C | 44% | 1022.2 hPa | - | - | - | - |
| 1777751940 | 20° C | 45% | 1022.2 hPa | - | - | - | - |
| 1777751336 | 20° C | 45% | 1022.3 hPa | - | - | - | - |
| 1777748936 | 22.78° C | 38% | 1021.1 hPa | - | - | - | - |
| 1777748336 | 23.33° C | 37% | 1020.9 hPa | - | - | - | - |
| 1777747137 | 21.11° C | 39% | 1021.4 hPa | - | - | - | - |
| 1777745336 | 21.67° C | 38% | 1021 hPa | - | - | - | - |
| 1777741752 | 22.78° C | 35% | 1020.7 hPa | - | - | - | - |
* Rain since midnight (hover to see other rain measurements)
** Current wind speed in m/s (hover to see current wind gust speed)